Latest Weather Observations for Townsville

IDQ60801

Issued at 1:22 pm EST Monday 8 March 2021 (issued every 10 minutes, with the page automatically refreshed every 10 minutes)

About weather observations | Map of weather stations | Latest weather observations for QLD | Other Formats
Station Details ID: 032040 Name: TOWNSVILLE AERO Lat: -19.25 Lon: 146.77 Height: 4.34 m
Data from the previous 72 hours. | See also: Recent months at Townsville
Date/Time
EST
Temp
°C
App
Temp
°C
Dew
Point
°C
Rel
Hum
%
Delta-T
°C
Wind Press
QNH
hPa
Press
MSL
hPa
Rain since
9am
mm
Dir  Spd
km/h
Gust
km/h
Spd
kts
Gust
kts
08/01:00pm 29.3 30.4 22.3 66 4.7 ENE 20 30 11 16 1014.0 1013.9 0.0
08/12:30pm 29.5 30.3 23.2 69 4.3 ENE 24 28 13 15 1014.2 1014.1 0.0
08/12:00pm 29.0 30.5 23.0 70 4.1 ENE 20 28 11 15 1014.5 1014.4 0.0
08/11:30am 29.1 29.7 22.1 66 4.7 ENE 22 30 12 16 1014.7 1014.6 0.0
08/11:00am 29.1 29.9 21.8 64 4.9 ENE 20 26 11 14 1014.8 1014.7 0.0
08/10:30am 29.2 30.0 22.4 66 4.6 NE 22 30 12 16 1014.9 1014.8 0.0
08/10:00am 29.3 30.0 23.0 69 4.3 ENE 24 32 13 17 1014.9 1014.8 0.0
08/09:30am 28.7 29.1 22.4 68 4.3 NE 24 30 13 16 1014.8 1014.7 0.0
08/09:00am 28.6 29.3 22.3 68 4.3 NE 22 28 12 15 1014.6 1014.5 0.0
08/08:30am 28.4 29.9 23.1 73 3.6 NE 20 28 11 15 1014.5 1014.4 0.0
08/08:00am 28.1 31.0 23.2 74 3.3 NE 13 19 7 10 1014.3 1014.2 0.0
08/07:30am 26.8 28.4 22.2 76 3.1 NE 17 20 9 11 1013.8 1013.7 0.0
08/07:00am 27.0 29.2 22.6 77 3.0 NE 15 19 8 10 1013.3 1013.2 0.0
08/06:30am 26.1 28.6 22.4 80 2.5 ENE 13 17 7 9 1013.1 1013.0 0.0
08/06:00am 25.9 27.7 22.6 82 2.2 NE 17 20 9 11 1012.8 1012.7 0.0
08/05:30am 25.8 27.5 22.3 81 2.3 NE 17 20 9 11 1012.6 1012.5 0.0
08/05:00am 25.8 27.4 22.1 80 2.5 ENE 17 22 9 12 1012.4 1012.3 0.0
08/04:30am 26.1 27.9 22.6 81 2.4 ENE 17 22 9 12 1012.0 1011.9 0.0
08/04:00am 25.8 27.8 22.3 81 2.4 ENE 15 19 8 10 1011.9 1011.8 0.0
08/03:30am 26.0 27.3 22.3 80 2.5 ENE 19 26 10 14 1011.7 1011.6 0.0
08/03:00am 26.0 27.9 22.7 82 2.2 ENE 17 20 9 11 1011.7 1011.6 0.0
08/02:30am 26.2 28.1 22.7 81 2.4 NE 17 24 9 13 1011.9 1011.8 0.0
08/02:00am 26.3 27.7 22.6 80 2.5 NE 19 24 10 13 1012.2 1012.1 0.0
08/01:30am 26.5 28.4 22.8 80 2.5 ENE 17 24 9 13 1012.4 1012.3 0.0
08/01:00am 26.5 27.8 22.6 79 2.6 ENE 20 30 11 16 1012.6 1012.5 0.0
08/12:30am 26.6 27.8 22.2 77 3.0 NE 19 24 10 13 1012.9 1012.8 0.0
08/12:00am 26.5 27.5 22.8 80 2.5 ENE 22 30 12 16 1013.1 1013.0 0.0
 
Date/Time
EST
Temp
°C
App
Temp
°C
Dew
Point
°C
Rel
Hum
%
Delta-T
°C
Wind Press
QNH
hPa
Press
MSL
hPa
Rain since
9am
mm
Dir  Spd
km/h
Gust
km/h
Spd
kts
Gust
kts
07/11:30pm 26.9 27.9 22.9 79 2.7 ENE 22 30 12 16 1013.1 1013.0 0.0
07/11:00pm 26.7 27.5 23.2 81 2.4 NE 24 32 13 17 1013.4 1013.3 0.0
07/10:30pm 27.3 27.8 23.3 79 2.7 ENE 26 33 14 18 1013.4 1013.3 0.0
07/10:00pm 27.2 27.8 23.4 80 2.6 ENE 26 33 14 18 1013.4 1013.3 0.0
07/09:30pm 27.3 28.3 23.5 80 2.6 NE 24 32 13 17 1013.3 1013.2 0.0
07/09:00pm 27.1 27.4 23.6 81 2.4 NE 28 37 15 20 1013.0 1012.9 0.0
07/08:30pm 27.4 28.3 22.6 75 3.2 NE 22 32 12 17 1012.5 1012.4 0.0
07/08:00pm 27.4 27.6 23.4 79 2.7 NE 28 35 15 19 1012.0 1011.9 0.0
07/07:30pm 27.4 28.0 22.8 76 3.1 NE 24 33 13 18 1011.4 1011.3 0.0
07/07:00pm 27.4 27.7 23.0 77 3.0 NE 26 32 14 17 1011.1 1011.0 0.0
07/06:30pm 27.5 28.3 23.1 77 3.0 NE 24 32 13 17 1010.6 1010.5 0.0
07/06:00pm 28.0 28.9 23.4 76 3.2 NE 24 30 13 16 1010.5 1010.4 0.0
07/05:30pm 28.3 29.2 23.9 77 3.0 NE 26 32 14 17 1010.2 1010.1 0.0
07/05:00pm 27.9 28.6 23.7 78 2.9 NE 26 32 14 17 1010.0 1009.9 0.0
07/04:30pm 28.3 29.0 23.7 76 3.2 NE 26 33 14 18 1010.0 1009.9 0.0
07/04:00pm 29.1 30.1 24.7 77 3.1 NE 28 33 15 18 1009.9 1009.8 0.0
07/03:30pm 28.6 28.8 23.5 74 3.5 NE 28 33 15 18 1009.8 1009.7 0.0
07/03:00pm 29.2 29.8 24.1 74 3.5 NE 28 35 15 19 1009.8 1009.7 0.0
07/02:30pm 30.1 30.9 24.5 72 3.9 ENE 28 35 15 19 1009.9 1009.8 0.0
07/02:00pm 28.9 30.1 23.8 74 3.5 NE 24 32 13 17 1010.0 1009.9 0.0
07/01:30pm 29.0 29.9 23.9 74 3.5 NE 26 32 14 17 1010.4 1010.3 0.0
07/01:00pm 29.2 29.8 24.1 74 3.5 NE 28 32 15 17 1010.9 1010.8 0.0
07/12:30pm 29.6 30.6 24.7 75 3.4 ENE 28 33 15 18 1011.2 1011.1 0.0
07/12:00pm 29.2 29.5 24.3 75 3.4 ENE 30 35 16 19 1011.2 1011.1 0.0
07/11:30am 29.7 30.0 24.3 73 3.8 NE 30 33 16 18 1011.7 1011.6 0.0
07/11:00am 30.1 32.1 25.8 78 3.1 NE 26 33 14 18 1011.9 1011.8 0.0
07/10:30am 29.9 31.5 25.2 76 3.3 ENE 26 33 14 18 1011.7 1011.6 0.0
07/10:00am 29.4 30.7 24.7 76 3.3 NE 26 33 14 18 1011.8 1011.7 0.0
07/09:30am 29.6 32.3 25.6 79 2.8 ENE 22 30 12 16 1011.9 1011.8 0.0
07/09:00am 29.3 31.8 24.4 75 3.4 NNE 19 24 10 13 1011.9 1011.8 0.0
07/08:30am 28.8 31.4 24.6 78 2.9 NE 19 26 10 14 1011.5 1011.4 0.0
07/08:00am 28.3 31.0 24.7 81 2.5 NNE 19 24 10 13 1011.0 1010.9 0.0
07/07:30am 27.8 30.7 24.4 82 2.4 NNE 17 24 9 13 1010.4 1010.3 0.0
07/07:00am 27.6 33.0 25.4 88 1.5 NNE 7 9 4 5 1010.2 1010.1 0.0
07/06:30am 26.5 31.2 24.9 91 1.1 NNE 9 11 5 6 1009.8 1009.7 0.0
07/06:24am 26.4 31.0 24.8 91 1.1 NNE 9 13 5 7 1009.7 1009.6 0.0
07/06:00am 26.4 30.6 24.8 91 1.1 NNE 11 13 6 7 1009.6 1009.5 0.0
07/05:30am 26.5 30.6 24.5 89 1.4 N 11 17 6 9 1009.3 1009.2 0.0
07/05:00am 26.3 30.2 24.3 89 1.4 N 11 13 6 7 1008.8 1008.7 0.0
07/04:30am 26.2 30.1 24.2 89 1.4 N 11 15 6 8 1008.5 1008.4 0.0
07/04:00am 26.2 30.5 24.2 89 1.4 N 9 13 5 7 1008.3 1008.2 0.0
07/03:30am 26.6 30.2 24.4 88 1.5 N 13 19 7 10 1008.2 1008.1 0.0
07/03:00am 26.7 30.4 24.5 88 1.5 N 13 15 7 8 1008.1 1008.0 0.0
07/02:30am 26.7 30.6 24.9 90 1.3 N 13 20 7 11 1008.1 1008.0 0.0
07/02:00am 26.6 30.1 24.8 90 1.3 N 15 19 8 10 1008.2 1008.1 0.0
07/01:30am 26.6 30.5 24.8 90 1.3 N 13 17 7 9 1008.4 1008.3 0.0
07/01:00am 26.7 30.6 24.9 90 1.3 N 13 19 7 10 1008.7 1008.6 0.0
07/12:30am 26.7 30.7 25.1 91 1.1 N 13 17 7 9 1008.9 1008.8 0.0
07/12:00am 26.7 31.0 24.9 90 1.3 NNE 11 15 6 8 1009.1 1009.0 0.0
 
Date/Time
EST
Temp
°C
App
Temp
°C
Dew
Point
°C
Rel
Hum
%
Delta-T
°C
Wind Press
QNH
hPa
Press
MSL
hPa
Rain since
9am
mm
Dir  Spd
km/h
Gust
km/h
Spd
kts
Gust
kts
06/11:30pm 26.9 31.3 25.1 90 1.3 N 11 15 6 8 1009.3 1009.2 0.0
06/11:18pm 27.0 31.1 25.2 90 1.3 N 13 17 7 9 1009.5 1009.4 0.0
06/11:00pm 27.1 31.7 25.3 90 1.3 N 11 15 6 8 1009.7 1009.6 0.0
06/10:53pm 27.2 31.4 25.4 90 1.3 N 13 17 7 9 1009.7 1009.6 0.0
06/10:30pm 27.2 31.7 25.2 89 1.4 N 11 13 6 7 1009.9 1009.8 0.0
06/10:00pm 27.3 31.6 25.5 90 1.3 N 13 19 7 10 1009.9 1009.8 0.0
06/09:30pm 27.1 31.3 25.3 90 1.3 N 13 19 7 10 1009.6 1009.5 0.0
06/09:00pm 27.3 30.6 25.1 88 1.5 N 17 22 9 12 1009.1 1009.0 0.0
06/08:30pm 27.3 31.0 25.1 88 1.5 N 15 19 8 10 1008.9 1008.8 0.0
06/08:00pm 27.2 31.6 25.0 88 1.5 N 11 15 6 8 1008.6 1008.5 0.0
06/07:30pm 27.3 31.9 24.7 86 1.8 N 9 15 5 8 1008.3 1008.2 0.0
06/07:00pm 27.5 31.5 24.4 83 2.2 N 11 15 6 8 1007.9 1007.8 0.0
06/06:30pm 27.9 30.7 24.3 81 2.5 N 17 22 9 12 1007.3 1007.2 0.0
06/06:00pm 28.5 30.5 23.6 75 3.4 N 19 26 10 14 1007.0 1006.9 0.0
06/05:30pm 29.4 31.8 23.6 71 4.0 N 17 22 9 12 1006.5 1006.4 0.0
06/05:00pm 29.5 31.0 23.7 71 4.0 NNE 22 28 12 15 1006.3 1006.2 0.0
06/04:30pm 28.9 30.9 23.6 73 3.6 N 19 26 10 14 1006.4 1006.3 0.0
06/04:00pm 29.6 31.5 23.5 69 4.2 N 19 26 10 14 1006.4 1006.3 0.0
06/03:30pm 30.1 32.1 24.0 70 4.2 N 20 26 11 14 1006.5 1006.4 0.0
06/03:00pm 29.9 32.2 24.1 71 4.0 NNE 19 26 10 14 1006.7 1006.6 0.0
06/02:30pm 30.2 32.9 24.8 73 3.8 NNE 19 26 10 14 1006.9 1006.8 0.0
06/02:00pm 30.4 33.9 25.5 75 3.5 N 17 26 9 14 1007.0 1006.9 0.0
06/01:30pm 30.2 32.2 23.9 69 4.4 N 20 28 11 15 1007.2 1007.1 0.0
06/01:00pm 30.3 32.1 23.2 65 4.9 NNW 19 30 10 16 1007.2 1007.1 0.0
06/12:30pm 30.1 32.0 22.8 65 5.0 NNW 17 24 9 13 1007.6 1007.5 0.0
06/12:00pm 29.8 31.7 23.5 69 4.3 N 19 28 10 15 1008.0 1007.9 0.0
06/11:30am 29.5 32.1 23.9 72 3.9 NNW 17 20 9 11 1008.5 1008.4 0.0
06/11:00am 28.8 31.4 23.9 75 3.4 NNW 17 22 9 12 1008.6 1008.5 0.0
06/10:30am 28.6 30.5 23.7 75 3.4 NW 20 30 11 16 1008.8 1008.7 0.0
06/10:00am 28.8 31.8 24.6 78 2.9 NNW 17 24 9 13 1008.7 1008.6 0.0
06/09:30am 28.3 30.6 23.4 75 3.4 NNW 17 24 9 13 1008.5 1008.4 0.0
06/09:00am 28.1 31.1 24.7 82 2.4 NNW 17 22 9 12 1008.5 1008.4 0.0
06/08:30am 27.3 30.9 24.4 84 2.0 NW 13 17 7 9 1008.4 1008.3 0.0
06/08:00am 26.4 31.7 24.4 89 1.4 NW 4 7 2 4 1008.3 1008.2 0.0
06/07:30am 25.3 29.6 23.7 91 1.1 W 7 9 4 5 1008.1 1008.0 0.0
06/07:00am 24.7 28.7 23.1 91 1.1 W 7 9 4 5 1007.8 1007.7 0.0
06/06:30am 24.3 29.5 22.9 92 0.9 CALM 0 0 0 0 1007.6 1007.5 0.0
06/06:00am 24.2 28.3 23.0 93 0.8 WNW 6 9 3 5 1007.1 1007.0 0.0
06/05:30am 24.3 29.6 23.1 93 0.8 CALM 0 0 0 0 1006.9 1006.8 0.0
06/05:00am 24.5 29.9 23.3 93 0.8 CALM 0 0 0 0 1006.6 1006.5 0.0
06/04:30am 24.8 30.0 23.6 93 0.8 NW 2 7 1 4 1006.3 1006.2 0.0
06/04:00am 24.8 30.3 23.4 92 1.0 CALM 0 0 0 0 1006.2 1006.1 0.0
06/03:30am 25.1 29.8 23.9 93 0.8 NW 6 7 3 4 1006.1 1006.0 0.0
06/03:00am 25.2 29.3 23.3 89 1.3 NNW 7 9 4 5 1006.1 1006.0 0.0
06/02:30am 25.6 29.4 23.5 88 1.4 N 9 11 5 6 1006.4 1006.3 0.0
06/02:00am 25.5 29.4 23.6 89 1.3 N 9 11 5 6 1006.7 1006.6 0.0
06/01:30am 25.2 28.9 23.3 89 1.3 N 9 9 5 5 1007.1 1007.0 0.0
06/01:00am 25.4 29.4 23.1 87 1.6 N 7 9 4 5 1007.2 1007.1 0.0
06/12:30am 25.6 29.3 23.3 87 1.6 N 9 11 5 6 1007.4 1007.3 0.0
06/12:00am 25.9 29.5 23.0 84 2.0 N 9 13 5 7 1007.7 1007.6 0.0
 
Date/Time
EST
Temp
°C
App
Temp
°C
Dew
Point
°C
Rel
Hum
%
Delta-T
°C
Wind Press
QNH
hPa
Press
MSL
hPa
Rain since
9am
mm
Dir  Spd
km/h
Gust
km/h
Spd
kts
Gust
kts
05/11:30pm 26.0 29.2 23.1 84 2.0 N 11 15 6 8 1008.0 1007.9 0.0
05/11:00pm 26.1 29.3 23.0 83 2.1 N 11 13 6 7 1008.0 1007.9 0.0
05/10:30pm 26.3 30.0 23.2 83 2.1 N 9 13 5 7 1008.1 1008.0 0.0
05/10:00pm 26.1 29.2 22.8 82 2.2 N 11 15 6 8 1007.8 1007.7 0.0
05/09:30pm 26.2 29.3 22.9 82 2.2 N 11 15 6 8 1007.7 1007.6 0.0
05/09:00pm 26.2 30.1 22.9 82 2.2 N 7 13 4 7 1007.4 1007.3 0.0
05/08:30pm 26.1 30.4 23.6 86 1.7 NW 7 11 4 6 1006.9 1006.8 0.0
05/08:00pm 26.3 29.6 22.6 80 2.5 ENE 9 13 5 7 1006.7 1006.6 0.0
05/07:30pm 26.4 28.9 22.5 79 2.6 NE 13 17 7 9 1006.4 1006.3 0.0
05/07:00pm 26.8 28.4 22.2 76 3.1 NE 17 22 9 12 1006.1 1006.0 0.0
05/06:30pm 27.1 28.2 22.3 75 3.2 ENE 20 26 11 14 1005.6 1005.5 0.0
05/06:00pm 27.6 27.8 22.1 72 3.7 ENE 24 28 13 15 1005.0 1004.9 0.0
05/05:30pm 28.2 29.2 22.9 73 3.6 ENE 22 28 12 15 1004.9 1004.8 0.0
05/05:00pm 28.7 29.5 22.4 68 4.3 ENE 22 30 12 16 1004.9 1004.8 0.0
05/04:30pm 28.9 28.9 22.4 68 4.4 ENE 26 32 14 17 1004.7 1004.6 0.0
05/04:00pm 29.2 29.5 22.9 69 4.3 ENE 26 30 14 16 1004.6 1004.5 0.0
05/03:30pm 28.8 29.2 22.5 68 4.3 ENE 24 30 13 16 1004.8 1004.7 0.0
05/03:00pm 29.6 29.5 22.3 65 5.0 ENE 26 32 14 17 1004.5 1004.4 0.0
05/02:30pm 30.1 30.3 22.8 65 5.0 ENE 26 30 14 16 1004.7 1004.6 0.0
05/02:00pm 30.3 31.8 22.7 64 5.2 NE 19 26 10 14 1005.0 1004.9 0.0
05/01:30pm 30.7 32.3 22.8 62 5.4 NE 19 26 10 14 1005.5 1005.4 0.0

Other formats

Comma delimited format used in spreadsheet applications
http://www.bom.gov.au/fwo/IDQ60801/IDQ60801.94294.axf

JavaScript Object Notation format (JSON) in row-major order
http://www.bom.gov.au/fwo/IDQ60801/IDQ60801.94294.json

Data quality

Most of these data are generated automatically and are frequently updated. Quality checks on data are not normally performed. It is possible for incorrect values to appear. Refer to information at About Latest Weather Observations and please check the disclaimer before using these data.